sensor_id;sensor_type;location;lat;lon;timestamp;P1;durP1;ratioP1;P2;durP2;ratioP2
10212;SDS011;5150;51.400;6.692;2022-12-26T00:00:09;13.90;;;8.82;;
10212;SDS011;5150;51.400;6.692;2022-12-26T00:03:33;19.02;;;8.63;;
10212;SDS011;5150;51.400;6.692;2022-12-26T00:06:57;12.85;;;8.40;;
10212;SDS011;5150;51.400;6.692;2022-12-26T00:10:20;11.10;;;6.68;;
10212;SDS011;5150;51.400;6.692;2022-12-26T00:13:45;14.07;;;7.40;;
10212;SDS011;5150;51.400;6.692;2022-12-26T00:17:08;13.82;;;8.25;;
10212;SDS011;5150;51.400;6.692;2022-12-26T00:20:32;14.32;;;8.52;;
10212;SDS011;5150;51.400;6.692;2022-12-26T00:23:56;15.48;;;8.45;;
10212;SDS011;5150;51.400;6.692;2022-12-26T00:27:19;12.80;;;7.60;;
10212;SDS011;5150;51.400;6.692;2022-12-26T00:30:44;12.43;;;7.53;;
10212;SDS011;5150;51.400;6.692;2022-12-26T00:34:09;9.65;;;7.45;;
10212;SDS011;5150;51.400;6.692;2022-12-26T00:37:32;10.68;;;8.40;;
10212;SDS011;5150;51.400;6.692;2022-12-26T00:40:55;15.07;;;9.52;;
10212;SDS011;5150;51.400;6.692;2022-12-26T00:44:19;15.60;;;9.15;;
10212;SDS011;5150;51.400;6.692;2022-12-26T00:47:43;16.65;;;9.38;;
10212;SDS011;5150;51.400;6.692;2022-12-26T00:51:07;14.63;;;9.85;;
10212;SDS011;5150;51.400;6.692;2022-12-26T00:54:30;21.65;;;9.70;;
10212;SDS011;5150;51.400;6.692;2022-12-26T00:57:54;16.85;;;9.82;;
10212;SDS011;5150;51.400;6.692;2022-12-26T01:01:18;17.67;;;9.88;;
10212;SDS011;5150;51.400;6.692;2022-12-26T01:04:43;18.85;;;10.85;;
10212;SDS011;5150;51.400;6.692;2022-12-26T01:08:07;18.30;;;11.45;;
10212;SDS011;5150;51.400;6.692;2022-12-26T01:11:44;21.30;;;10.48;;
10212;SDS011;5150;51.400;6.692;2022-12-26T01:15:08;20.98;;;12.85;;
10212;SDS011;5150;51.400;6.692;2022-12-26T01:18:32;19.52;;;11.00;;
10212;SDS011;5150;51.400;6.692;2022-12-26T01:21:57;19.98;;;10.25;;
10212;SDS011;5150;51.400;6.692;2022-12-26T01:25:20;19.13;;;10.32;;
10212;SDS011;5150;51.400;6.692;2022-12-26T01:28:43;19.67;;;11.18;;
10212;SDS011;5150;51.400;6.692;2022-12-26T01:32:07;16.02;;;9.65;;
10212;SDS011;5150;51.400;6.692;2022-12-26T01:35:30;15.02;;;8.90;;
10212;SDS011;5150;51.400;6.692;2022-12-26T01:38:55;11.77;;;7.25;;
10212;SDS011;5150;51.400;6.692;2022-12-26T01:42:19;11.50;;;6.78;;
10212;SDS011;5150;51.400;6.692;2022-12-26T01:45:43;13.23;;;8.20;;
10212;SDS011;5150;51.400;6.692;2022-12-26T01:49:10;11.65;;;8.52;;
10212;SDS011;5150;51.400;6.692;2022-12-26T01:52:35;12.88;;;8.98;;
10212;SDS011;5150;51.400;6.692;2022-12-26T01:56:02;20.25;;;9.05;;
10212;SDS011;5150;51.400;6.692;2022-12-26T01:59:27;12.43;;;8.93;;
10212;SDS011;5150;51.400;6.692;2022-12-26T02:02:52;27.05;;;11.10;;
10212;SDS011;5150;51.400;6.692;2022-12-26T02:06:35;18.40;;;12.00;;
10212;SDS011;5150;51.400;6.692;2022-12-26T02:10:01;18.15;;;11.32;;
10212;SDS011;5150;51.400;6.692;2022-12-26T02:13:26;21.60;;;11.10;;
10212;SDS011;5150;51.400;6.692;2022-12-26T02:16:50;16.63;;;10.70;;
10212;SDS011;5150;51.400;6.692;2022-12-26T02:20:16;19.27;;;10.25;;
10212;SDS011;5150;51.400;6.692;2022-12-26T02:23:58;14.20;;;9.82;;
10212;SDS011;5150;51.400;6.692;2022-12-26T02:27:28;13.82;;;9.50;;
10212;SDS011;5150;51.400;6.692;2022-12-26T02:30:58;19.70;;;10.05;;
10212;SDS011;5150;51.400;6.692;2022-12-26T02:34:24;14.70;;;9.68;;
10212;SDS011;5150;51.400;6.692;2022-12-26T02:37:53;23.02;;;11.20;;
10212;SDS011;5150;51.400;6.692;2022-12-26T02:41:23;18.55;;;11.88;;
10212;SDS011;5150;51.400;6.692;2022-12-26T02:44:49;16.17;;;10.93;;
10212;SDS011;5150;51.400;6.692;2022-12-26T02:48:35;20.58;;;13.95;;
10212;SDS011;5150;51.400;6.692;2022-12-26T02:52:02;23.20;;;12.32;;
10212;SDS011;5150;51.400;6.692;2022-12-26T02:55:44;18.65;;;12.80;;
10212;SDS011;5150;51.400;6.692;2022-12-26T02:59:29;21.20;;;13.60;;
10212;SDS011;5150;51.400;6.692;2022-12-26T03:03:17;19.83;;;13.25;;
10212;SDS011;5150;51.400;6.692;2022-12-26T03:07:00;22.92;;;14.40;;
10212;SDS011;5150;51.400;6.692;2022-12-26T03:10:43;22.70;;;14.57;;
10212;SDS011;5150;51.400;6.692;2022-12-26T03:14:25;25.63;;;15.43;;
10212;SDS011;5150;51.400;6.692;2022-12-26T03:17:51;25.85;;;16.02;;
10212;SDS011;5150;51.400;6.692;2022-12-26T03:21:14;27.20;;;16.17;;
10212;SDS011;5150;51.400;6.692;2022-12-26T03:24:40;30.00;;;18.27;;
10212;SDS011;5150;51.400;6.692;2022-12-26T03:28:18;29.05;;;18.33;;
10212;SDS011;5150;51.400;6.692;2022-12-26T03:31:41;29.20;;;18.13;;
10212;SDS011;5150;51.400;6.692;2022-12-26T03:35:07;30.05;;;18.55;;
10212;SDS011;5150;51.400;6.692;2022-12-26T03:38:33;28.35;;;17.00;;
10212;SDS011;5150;51.400;6.692;2022-12-26T03:42:01;31.25;;;19.67;;
10212;SDS011;5150;51.400;6.692;2022-12-26T03:45:47;29.55;;;19.20;;
10212;SDS011;5150;51.400;6.692;2022-12-26T03:49:29;31.83;;;19.25;;
10212;SDS011;5150;51.400;6.692;2022-12-26T03:53:12;27.77;;;18.33;;
10212;SDS011;5150;51.400;6.692;2022-12-26T03:56:59;28.30;;;17.95;;
10212;SDS011;5150;51.400;6.692;2022-12-26T04:00:41;26.63;;;16.67;;
10212;SDS011;5150;51.400;6.692;2022-12-26T04:04:23;32.60;;;18.55;;
10212;SDS011;5150;51.400;6.692;2022-12-26T04:08:09;29.98;;;19.13;;
10212;SDS011;5150;51.400;6.692;2022-12-26T04:11:53;37.80;;;21.17;;
10212;SDS011;5150;51.400;6.692;2022-12-26T04:15:40;31.98;;;19.50;;
10212;SDS011;5150;51.400;6.692;2022-12-26T04:19:26;34.92;;;20.63;;
10212;SDS011;5150;51.400;6.692;2022-12-26T04:22:54;36.53;;;21.20;;
10212;SDS011;5150;51.400;6.692;2022-12-26T04:26:38;32.90;;;19.42;;
10212;SDS011;5150;51.400;6.692;2022-12-26T04:30:20;30.55;;;18.58;;
10212;SDS011;5150;51.400;6.692;2022-12-26T04:34:04;25.55;;;17.30;;
10212;SDS011;5150;51.400;6.692;2022-12-26T04:37:47;30.73;;;18.92;;
10212;SDS011;5150;51.400;6.692;2022-12-26T04:41:28;31.83;;;18.42;;
10212;SDS011;5150;51.400;6.692;2022-12-26T04:45:11;30.80;;;18.98;;
10212;SDS011;5150;51.400;6.692;2022-12-26T04:48:40;37.03;;;20.55;;
10212;SDS011;5150;51.400;6.692;2022-12-26T04:52:23;33.17;;;17.45;;
10212;SDS011;5150;51.400;6.692;2022-12-26T04:56:07;30.60;;;17.45;;
10212;SDS011;5150;51.400;6.692;2022-12-26T04:59:30;32.67;;;16.88;;
10212;SDS011;5150;51.400;6.692;2022-12-26T05:02:54;28.08;;;15.60;;
10212;SDS011;5150;51.400;6.692;2022-12-26T05:06:40;30.48;;;16.08;;
10212;SDS011;5150;51.400;6.692;2022-12-26T05:10:22;31.25;;;17.67;;
10212;SDS011;5150;51.400;6.692;2022-12-26T05:13:46;28.05;;;17.00;;
10212;SDS011;5150;51.400;6.692;2022-12-26T05:17:10;28.70;;;16.42;;
10212;SDS011;5150;51.400;6.692;2022-12-26T05:20:52;25.13;;;16.25;;
10212;SDS011;5150;51.400;6.692;2022-12-26T05:24:34;33.90;;;17.60;;
10212;SDS011;5150;51.400;6.692;2022-12-26T05:28:18;32.83;;;17.23;;
10212;SDS011;5150;51.400;6.692;2022-12-26T05:31:59;28.05;;;17.08;;
10212;SDS011;5150;51.400;6.692;2022-12-26T05:35:22;29.38;;;15.95;;
10212;SDS011;5150;51.400;6.692;2022-12-26T05:38:45;24.73;;;15.43;;
10212;SDS011;5150;51.400;6.692;2022-12-26T05:42:09;24.38;;;14.77;;
10212;SDS011;5150;51.400;6.692;2022-12-26T05:45:34;29.08;;;15.73;;
10212;SDS011;5150;51.400;6.692;2022-12-26T05:48:57;23.33;;;15.55;;
10212;SDS011;5150;51.400;6.692;2022-12-26T05:52:20;25.05;;;15.80;;
10212;SDS011;5150;51.400;6.692;2022-12-26T05:55:44;31.63;;;14.63;;
10212;SDS011;5150;51.400;6.692;2022-12-26T05:59:07;26.98;;;15.20;;
10212;SDS011;5150;51.400;6.692;2022-12-26T06:02:32;27.88;;;16.33;;
10212;SDS011;5150;51.400;6.692;2022-12-26T06:05:56;29.38;;;17.35;;
10212;SDS011;5150;51.400;6.692;2022-12-26T06:09:19;30.25;;;16.77;;
10212;SDS011;5150;51.400;6.692;2022-12-26T06:12:43;24.38;;;15.40;;
10212;SDS011;5150;51.400;6.692;2022-12-26T06:16:07;29.23;;;16.42;;
10212;SDS011;5150;51.400;6.692;2022-12-26T06:19:32;29.98;;;15.02;;
10212;SDS011;5150;51.400;6.692;2022-12-26T06:22:55;26.42;;;16.80;;
10212;SDS011;5150;51.400;6.692;2022-12-26T06:26:18;29.45;;;15.10;;
10212;SDS011;5150;51.400;6.692;2022-12-26T06:29:42;28.90;;;15.15;;
10212;SDS011;5150;51.400;6.692;2022-12-26T06:33:05;28.75;;;14.95;;
10212;SDS011;5150;51.400;6.692;2022-12-26T06:36:30;26.58;;;15.10;;
10212;SDS011;5150;51.400;6.692;2022-12-26T06:39:53;30.27;;;15.30;;
10212;SDS011;5150;51.400;6.692;2022-12-26T06:43:17;36.63;;;17.13;;
10212;SDS011;5150;51.400;6.692;2022-12-26T06:46:40;20.83;;;14.93;;
10212;SDS011;5150;51.400;6.692;2022-12-26T06:50:05;24.15;;;14.73;;
10212;SDS011;5150;51.400;6.692;2022-12-26T06:53:30;24.02;;;15.23;;
10212;SDS011;5150;51.400;6.692;2022-12-26T06:56:53;26.13;;;16.00;;
10212;SDS011;5150;51.400;6.692;2022-12-26T07:00:16;27.05;;;14.27;;
10212;SDS011;5150;51.400;6.692;2022-12-26T07:03:40;24.67;;;15.35;;
10212;SDS011;5150;51.400;6.692;2022-12-26T07:07:12;26.73;;;14.63;;
10212;SDS011;5150;51.400;6.692;2022-12-26T07:10:36;26.13;;;15.90;;
10212;SDS011;5150;51.400;6.692;2022-12-26T07:14:00;24.00;;;13.70;;
10212;SDS011;5150;51.400;6.692;2022-12-26T07:17:23;27.08;;;16.45;;
10212;SDS011;5150;51.400;6.692;2022-12-26T07:20:47;26.15;;;15.18;;
10212;SDS011;5150;51.400;6.692;2022-12-26T07:24:12;24.45;;;12.73;;
10212;SDS011;5150;51.400;6.692;2022-12-26T07:27:37;24.15;;;13.40;;
10212;SDS011;5150;51.400;6.692;2022-12-26T07:31:01;22.73;;;13.68;;
10212;SDS011;5150;51.400;6.692;2022-12-26T07:34:24;20.63;;;14.02;;
10212;SDS011;5150;51.400;6.692;2022-12-26T07:37:53;17.92;;;13.20;;
10212;SDS011;5150;51.400;6.692;2022-12-26T07:41:16;19.95;;;14.27;;
10212;SDS011;5150;51.400;6.692;2022-12-26T07:44:59;19.08;;;12.82;;
10212;SDS011;5150;51.400;6.692;2022-12-26T07:48:23;14.60;;;11.48;;
10212;SDS011;5150;51.400;6.692;2022-12-26T07:51:46;13.65;;;10.52;;
10212;SDS011;5150;51.400;6.692;2022-12-26T07:55:10;16.15;;;11.05;;
10212;SDS011;5150;51.400;6.692;2022-12-26T07:58:33;11.40;;;9.95;;
10212;SDS011;5150;51.400;6.692;2022-12-26T08:01:58;10.48;;;8.73;;
10212;SDS011;5150;51.400;6.692;2022-12-26T08:05:25;12.15;;;8.27;;
10212;SDS011;5150;51.400;6.692;2022-12-26T08:08:49;9.48;;;7.07;;
10212;SDS011;5150;51.400;6.692;2022-12-26T08:12:12;10.05;;;8.10;;
10212;SDS011;5150;51.400;6.692;2022-12-26T08:15:36;8.02;;;7.13;;
10212;SDS011;5150;51.400;6.692;2022-12-26T08:19:02;7.78;;;7.07;;
10212;SDS011;5150;51.400;6.692;2022-12-26T08:22:26;7.60;;;5.60;;
10212;SDS011;5150;51.400;6.692;2022-12-26T08:25:50;10.13;;;6.05;;
10212;SDS011;5150;51.400;6.692;2022-12-26T08:29:13;6.82;;;5.20;;
10212;SDS011;5150;51.400;6.692;2022-12-26T08:32:37;5.90;;;5.07;;
10212;SDS011;5150;51.400;6.692;2022-12-26T08:36:06;6.38;;;4.93;;
10212;SDS011;5150;51.400;6.692;2022-12-26T08:39:30;8.27;;;5.55;;
10212;SDS011;5150;51.400;6.692;2022-12-26T08:42:54;6.03;;;5.53;;
10212;SDS011;5150;51.400;6.692;2022-12-26T08:46:37;6.45;;;4.25;;
10212;SDS011;5150;51.400;6.692;2022-12-26T08:50:00;4.90;;;3.88;;
10212;SDS011;5150;51.400;6.692;2022-12-26T08:53:25;6.65;;;3.90;;
10212;SDS011;5150;51.400;6.692;2022-12-26T08:56:49;4.43;;;3.25;;
10212;SDS011;5150;51.400;6.692;2022-12-26T09:00:13;3.60;;;3.30;;
10212;SDS011;5150;51.400;6.692;2022-12-26T09:03:36;3.20;;;2.85;;
10212;SDS011;5150;51.400;6.692;2022-12-26T09:07:00;3.28;;;3.08;;
10212;SDS011;5150;51.400;6.692;2022-12-26T09:10:24;2.88;;;2.67;;
10212;SDS011;5150;51.400;6.692;2022-12-26T09:13:48;7.22;;;3.78;;
10212;SDS011;5150;51.400;6.692;2022-12-26T09:17:11;5.18;;;2.35;;
10212;SDS011;5150;51.400;6.692;2022-12-26T09:20:35;2.92;;;2.58;;
10212;SDS011;5150;51.400;6.692;2022-12-26T09:23:59;3.92;;;2.65;;
10212;SDS011;5150;51.400;6.692;2022-12-26T09:27:24;2.65;;;2.45;;
10212;SDS011;5150;51.400;6.692;2022-12-26T09:30:48;3.50;;;2.78;;
10212;SDS011;5150;51.400;6.692;2022-12-26T09:34:11;3.38;;;3.03;;
10212;SDS011;5150;51.400;6.692;2022-12-26T09:37:35;2.25;;;2.05;;
10212;SDS011;5150;51.400;6.692;2022-12-26T09:41:01;3.42;;;2.80;;
10212;SDS011;5150;51.400;6.692;2022-12-26T09:44:29;4.60;;;2.40;;
10212;SDS011;5150;51.400;6.692;2022-12-26T09:47:59;2.20;;;1.85;;
10212;SDS011;5150;51.400;6.692;2022-12-26T09:51:26;4.88;;;2.08;;
10212;SDS011;5150;51.400;6.692;2022-12-26T09:54:52;3.28;;;2.30;;
10212;SDS011;5150;51.400;6.692;2022-12-26T09:58:18;3.05;;;2.10;;
10212;SDS011;5150;51.400;6.692;2022-12-26T10:01:45;3.13;;;2.05;;
10212;SDS011;5150;51.400;6.692;2022-12-26T10:05:11;3.00;;;2.72;;
10212;SDS011;5150;51.400;6.692;2022-12-26T10:08:39;1.90;;;1.80;;
10212;SDS011;5150;51.400;6.692;2022-12-26T10:12:11;5.40;;;2.13;;
10212;SDS011;5150;51.400;6.692;2022-12-26T10:15:40;2.45;;;2.25;;
10212;SDS011;5150;51.400;6.692;2022-12-26T10:19:05;2.67;;;2.25;;
10212;SDS011;5150;51.400;6.692;2022-12-26T10:22:41;2.90;;;2.00;;
10212;SDS011;5150;51.400;6.692;2022-12-26T10:26:10;3.88;;;2.35;;
10212;SDS011;5150;51.400;6.692;2022-12-26T10:29:36;8.10;;;2.58;;
10212;SDS011;5150;51.400;6.692;2022-12-26T10:33:03;5.95;;;2.20;;
10212;SDS011;5150;51.400;6.692;2022-12-26T10:36:33;4.75;;;2.05;;
10212;SDS011;5150;51.400;6.692;2022-12-26T10:39:58;2.28;;;2.08;;
10212;SDS011;5150;51.400;6.692;2022-12-26T10:43:24;2.55;;;2.15;;
10212;SDS011;5150;51.400;6.692;2022-12-26T10:46:52;4.28;;;1.92;;
10212;SDS011;5150;51.400;6.692;2022-12-26T10:50:19;1.42;;;1.33;;
10212;SDS011;5150;51.400;6.692;2022-12-26T10:53:50;1.90;;;1.75;;
10212;SDS011;5150;51.400;6.692;2022-12-26T10:57:14;2.50;;;1.77;;
10212;SDS011;5150;51.400;6.692;2022-12-26T11:00:38;2.35;;;1.48;;
10212;SDS011;5150;51.400;6.692;2022-12-26T11:04:04;2.83;;;1.98;;
10212;SDS011;5150;51.400;6.692;2022-12-26T11:07:28;5.78;;;1.50;;
10212;SDS011;5150;51.400;6.692;2022-12-26T11:11:01;2.60;;;2.08;;
10212;SDS011;5150;51.400;6.692;2022-12-26T11:14:26;4.18;;;1.90;;
10212;SDS011;5150;51.400;6.692;2022-12-26T11:17:54;1.95;;;1.77;;
10212;SDS011;5150;51.400;6.692;2022-12-26T11:21:29;4.78;;;2.03;;
10212;SDS011;5150;51.400;6.692;2022-12-26T11:25:14;3.15;;;1.80;;
10212;SDS011;5150;51.400;6.692;2022-12-26T11:28:40;2.05;;;1.65;;
10212;SDS011;5150;51.400;6.692;2022-12-26T11:32:03;2.75;;;2.00;;
10212;SDS011;5150;51.400;6.692;2022-12-26T11:35:27;1.63;;;1.52;;
10212;SDS011;5150;51.400;6.692;2022-12-26T11:38:57;5.63;;;2.05;;
10212;SDS011;5150;51.400;6.692;2022-12-26T11:42:22;1.52;;;1.42;;
10212;SDS011;5150;51.400;6.692;2022-12-26T11:45:48;3.28;;;2.58;;
10212;SDS011;5150;51.400;6.692;2022-12-26T11:49:20;4.88;;;2.05;;
10212;SDS011;5150;51.400;6.692;2022-12-26T11:52:45;3.63;;;2.20;;
10212;SDS011;5150;51.400;6.692;2022-12-26T11:56:09;4.65;;;2.00;;
10212;SDS011;5150;51.400;6.692;2022-12-26T11:59:32;6.22;;;2.05;;
10212;SDS011;5150;51.400;6.692;2022-12-26T12:02:57;5.95;;;1.88;;
10212;SDS011;5150;51.400;6.692;2022-12-26T12:06:43;6.30;;;2.17;;
10212;SDS011;5150;51.400;6.692;2022-12-26T12:10:17;5.10;;;1.65;;
10212;SDS011;5150;51.400;6.692;2022-12-26T12:13:48;4.70;;;1.80;;
10212;SDS011;5150;51.400;6.692;2022-12-26T12:17:18;3.78;;;1.83;;
10212;SDS011;5150;51.400;6.692;2022-12-26T12:20:47;6.97;;;1.90;;
10212;SDS011;5150;51.400;6.692;2022-12-26T12:24:25;4.32;;;1.90;;
10212;SDS011;5150;51.400;6.692;2022-12-26T12:27:52;4.53;;;2.50;;
10212;SDS011;5150;51.400;6.692;2022-12-26T12:31:20;1.95;;;1.85;;
10212;SDS011;5150;51.400;6.692;2022-12-26T12:34:49;2.33;;;1.73;;
10212;SDS011;5150;51.400;6.692;2022-12-26T12:38:23;3.03;;;2.03;;
10212;SDS011;5150;51.400;6.692;2022-12-26T12:41:55;2.80;;;1.42;;
10212;SDS011;5150;51.400;6.692;2022-12-26T12:45:23;2.03;;;1.90;;
10212;SDS011;5150;51.400;6.692;2022-12-26T12:49:01;3.03;;;2.10;;
10212;SDS011;5150;51.400;6.692;2022-12-26T12:52:31;1.90;;;1.70;;
10212;SDS011;5150;51.400;6.692;2022-12-26T12:55:59;3.58;;;1.80;;
10212;SDS011;5150;51.400;6.692;2022-12-26T12:59:30;6.30;;;3.00;;
10212;SDS011;5150;51.400;6.692;2022-12-26T13:02:58;6.70;;;2.40;;
10212;SDS011;5150;51.400;6.692;2022-12-26T13:06:24;4.45;;;2.67;;
10212;SDS011;5150;51.400;6.692;2022-12-26T13:09:50;5.57;;;2.78;;
10212;SDS011;5150;51.400;6.692;2022-12-26T13:13:19;2.97;;;2.67;;
10212;SDS011;5150;51.400;6.692;2022-12-26T13:16:44;5.50;;;3.05;;
10212;SDS011;5150;51.400;6.692;2022-12-26T13:20:12;3.50;;;2.90;;
10212;SDS011;5150;51.400;6.692;2022-12-26T13:23:38;7.07;;;2.72;;
10212;SDS011;5150;51.400;6.692;2022-12-26T13:27:21;7.05;;;3.13;;
10212;SDS011;5150;51.400;6.692;2022-12-26T13:30:51;6.70;;;2.90;;
10212;SDS011;5150;51.400;6.692;2022-12-26T13:34:17;5.80;;;2.58;;
10212;SDS011;5150;51.400;6.692;2022-12-26T13:37:56;4.63;;;2.90;;
10212;SDS011;5150;51.400;6.692;2022-12-26T13:41:19;6.43;;;3.05;;
10212;SDS011;5150;51.400;6.692;2022-12-26T13:52:33;6.88;;;4.40;;
10212;SDS011;5150;51.400;6.692;2022-12-26T13:55:57;9.05;;;4.65;;
10212;SDS011;5150;51.400;6.692;2022-12-26T13:59:21;6.35;;;5.22;;
10212;SDS011;5150;51.400;6.692;2022-12-26T14:03:00;8.07;;;4.05;;
10212;SDS011;5150;51.400;6.692;2022-12-26T14:06:44;7.75;;;4.32;;
10212;SDS011;5150;51.400;6.692;2022-12-26T14:10:12;8.32;;;5.13;;
10212;SDS011;5150;51.400;6.692;2022-12-26T14:13:49;8.52;;;5.22;;
10212;SDS011;5150;51.400;6.692;2022-12-26T14:17:18;9.48;;;5.82;;
10212;SDS011;5150;51.400;6.692;2022-12-26T14:20:43;7.57;;;5.15;;
10212;SDS011;5150;51.400;6.692;2022-12-26T14:24:09;12.80;;;5.65;;
10212;SDS011;5150;51.400;6.692;2022-12-26T14:27:42;10.50;;;5.40;;
10212;SDS011;5150;51.400;6.692;2022-12-26T14:31:12;9.20;;;5.05;;
10212;SDS011;5150;51.400;6.692;2022-12-26T14:34:45;10.23;;;5.43;;
10212;SDS011;5150;51.400;6.692;2022-12-26T14:38:16;10.18;;;4.68;;
10212;SDS011;5150;51.400;6.692;2022-12-26T14:45:46;0.20;;;0.20;;
10212;SDS011;5150;51.400;6.692;2022-12-26T14:49:17;0.28;;;0.28;;
10212;SDS011;5150;51.400;6.692;2022-12-26T14:52:41;1.05;;;1.02;;
10212;SDS011;5150;51.400;6.692;2022-12-26T14:59:44;0.20;;;0.20;;
10212;SDS011;5150;51.400;6.692;2022-12-26T15:03:40;0.70;;;0.70;;
10212;SDS011;5150;51.400;6.692;2022-12-26T15:07:13;0.55;;;0.55;;
10212;SDS011;5150;51.400;6.692;2022-12-26T15:10:47;3.08;;;1.00;;
10212;SDS011;5150;51.400;6.692;2022-12-26T15:14:23;3.63;;;1.23;;
10212;SDS011;5150;51.400;6.692;2022-12-26T15:17:59;3.58;;;2.65;;
10212;SDS011;5150;51.400;6.692;2022-12-26T15:21:48;5.47;;;2.08;;
10212;SDS011;5150;51.400;6.692;2022-12-26T15:29:01;3.53;;;1.60;;
10212;SDS011;5150;51.400;6.692;2022-12-26T15:32:29;4.38;;;1.20;;
10212;SDS011;5150;51.400;6.692;2022-12-26T15:35:58;0.52;;;0.52;;
10212;SDS011;5150;51.400;6.692;2022-12-26T15:39:26;0.90;;;0.90;;
10212;SDS011;5150;51.400;6.692;2022-12-26T15:42:56;1.50;;;1.40;;
10212;SDS011;5150;51.400;6.692;2022-12-26T15:46:23;3.75;;;2.20;;
10212;SDS011;5150;51.400;6.692;2022-12-26T15:49:55;6.15;;;1.30;;
10212;SDS011;5150;51.400;6.692;2022-12-26T15:53:22;1.95;;;1.77;;
10212;SDS011;5150;51.400;6.692;2022-12-26T15:56:55;6.85;;;1.83;;
10212;SDS011;5150;51.400;6.692;2022-12-26T16:00:22;0.40;;;0.40;;
10212;SDS011;5150;51.400;6.692;2022-12-26T16:03:48;1.48;;;1.10;;
10212;SDS011;5150;51.400;6.692;2022-12-26T16:07:18;0.30;;;0.30;;
10212;SDS011;5150;51.400;6.692;2022-12-26T16:10:44;1.52;;;1.50;;
10212;SDS011;5150;51.400;6.692;2022-12-26T16:14:25;0.85;;;0.85;;
10212;SDS011;5150;51.400;6.692;2022-12-26T16:17:49;2.45;;;1.48;;
10212;SDS011;5150;51.400;6.692;2022-12-26T16:21:12;3.00;;;2.88;;
10212;SDS011;5150;51.400;6.692;2022-12-26T16:24:54;1.10;;;1.10;;
10212;SDS011;5150;51.400;6.692;2022-12-26T16:28:20;1.45;;;1.35;;
10212;SDS011;5150;51.400;6.692;2022-12-26T16:31:46;0.60;;;0.60;;
10212;SDS011;5150;51.400;6.692;2022-12-26T16:35:17;0.68;;;0.68;;
10212;SDS011;5150;51.400;6.692;2022-12-26T16:38:41;3.40;;;2.25;;
10212;SDS011;5150;51.400;6.692;2022-12-26T16:42:08;2.97;;;1.90;;
10212;SDS011;5150;51.400;6.692;2022-12-26T16:45:48;2.00;;;1.70;;
10212;SDS011;5150;51.400;6.692;2022-12-26T16:49:13;0.98;;;0.98;;
10212;SDS011;5150;51.400;6.692;2022-12-26T16:52:37;1.08;;;0.98;;
10212;SDS011;5150;51.400;6.692;2022-12-26T16:56:13;2.90;;;1.95;;
10212;SDS011;5150;51.400;6.692;2022-12-26T17:03:31;0.70;;;0.70;;
10212;SDS011;5150;51.400;6.692;2022-12-26T17:06:59;0.60;;;0.60;;
10212;SDS011;5150;51.400;6.692;2022-12-26T17:10:24;0.90;;;0.63;;
10212;SDS011;5150;51.400;6.692;2022-12-26T17:13:49;1.08;;;0.93;;
10212;SDS011;5150;51.400;6.692;2022-12-26T17:17:25;1.58;;;1.48;;
10212;SDS011;5150;51.400;6.692;2022-12-26T17:20:48;1.92;;;1.60;;
10212;SDS011;5150;51.400;6.692;2022-12-26T17:24:25;0.88;;;0.88;;
10212;SDS011;5150;51.400;6.692;2022-12-26T17:31:29;2.00;;;1.90;;
10212;SDS011;5150;51.400;6.692;2022-12-26T17:34:54;1.70;;;1.60;;
10212;SDS011;5150;51.400;6.692;2022-12-26T17:38:23;0.70;;;0.70;;
10212;SDS011;5150;51.400;6.692;2022-12-26T17:41:49;0.77;;;0.68;;
10212;SDS011;5150;51.400;6.692;2022-12-26T17:45:14;0.20;;;0.20;;
10212;SDS011;5150;51.400;6.692;2022-12-26T17:48:38;0.43;;;0.43;;
10212;SDS011;5150;51.400;6.692;2022-12-26T17:52:01;0.70;;;0.70;;
10212;SDS011;5150;51.400;6.692;2022-12-26T17:55:25;1.17;;;1.13;;
10212;SDS011;5150;51.400;6.692;2022-12-26T17:58:50;0.27;;;0.27;;
10212;SDS011;5150;51.400;6.692;2022-12-26T18:02:15;0.57;;;0.57;;
10212;SDS011;5150;51.400;6.692;2022-12-26T18:05:39;0.40;;;0.40;;
10212;SDS011;5150;51.400;6.692;2022-12-26T18:09:02;5.30;;;1.60;;
10212;SDS011;5150;51.400;6.692;2022-12-26T18:12:26;1.50;;;1.40;;
10212;SDS011;5150;51.400;6.692;2022-12-26T18:15:51;1.30;;;1.23;;
10212;SDS011;5150;51.400;6.692;2022-12-26T18:19:15;1.10;;;1.10;;
10212;SDS011;5150;51.400;6.692;2022-12-26T18:22:39;0.20;;;0.20;;
10212;SDS011;5150;51.400;6.692;2022-12-26T18:26:04;0.40;;;0.40;;
10212;SDS011;5150;51.400;6.692;2022-12-26T18:29:28;0.70;;;0.70;;
10212;SDS011;5150;51.400;6.692;2022-12-26T18:32:54;0.63;;;0.63;;
10212;SDS011;5150;51.400;6.692;2022-12-26T18:36:18;0.20;;;0.20;;
10212;SDS011;5150;51.400;6.692;2022-12-26T18:39:44;0.90;;;0.90;;
10212;SDS011;5150;51.400;6.692;2022-12-26T18:43:07;0.70;;;0.70;;
10212;SDS011;5150;51.400;6.692;2022-12-26T18:46:31;1.30;;;1.20;;
10212;SDS011;5150;51.400;6.692;2022-12-26T18:49:56;0.30;;;0.30;;
10212;SDS011;5150;51.400;6.692;2022-12-26T18:53:19;4.30;;;2.60;;
10212;SDS011;5150;51.400;6.692;2022-12-26T18:56:42;4.93;;;1.60;;
10212;SDS011;5150;51.400;6.692;2022-12-26T19:00:14;0.83;;;0.83;;
10212;SDS011;5150;51.400;6.692;2022-12-26T19:03:38;0.30;;;0.30;;
10212;SDS011;5150;51.400;6.692;2022-12-26T19:07:03;0.20;;;0.20;;
10212;SDS011;5150;51.400;6.692;2022-12-26T19:10:28;0.47;;;0.47;;
10212;SDS011;5150;51.400;6.692;2022-12-26T19:13:51;2.23;;;1.60;;
10212;SDS011;5150;51.400;6.692;2022-12-26T19:17:15;2.83;;;1.67;;
10212;SDS011;5150;51.400;6.692;2022-12-26T19:20:38;1.43;;;1.20;;
10212;SDS011;5150;51.400;6.692;2022-12-26T19:24:06;3.57;;;1.60;;
10212;SDS011;5150;51.400;6.692;2022-12-26T19:27:29;5.07;;;2.20;;
10212;SDS011;5150;51.400;6.692;2022-12-26T19:30:53;4.60;;;1.47;;
10212;SDS011;5150;51.400;6.692;2022-12-26T19:34:22;5.60;;;3.57;;
10212;SDS011;5150;51.400;6.692;2022-12-26T19:37:45;2.77;;;2.50;;
10212;SDS011;5150;51.400;6.692;2022-12-26T19:41:11;1.30;;;0.77;;
10212;SDS011;5150;51.400;6.692;2022-12-26T19:44:35;7.60;;;2.00;;
10212;SDS011;5150;51.400;6.692;2022-12-26T19:48:02;0.83;;;0.73;;
10212;SDS011;5150;51.400;6.692;2022-12-26T19:51:25;1.13;;;1.07;;
10212;SDS011;5150;51.400;6.692;2022-12-26T19:54:49;3.30;;;0.60;;
10212;SDS011;5150;51.400;6.692;2022-12-26T19:58:14;0.87;;;0.87;;
10212;SDS011;5150;51.400;6.692;2022-12-26T20:01:37;2.20;;;1.37;;
10212;SDS011;5150;51.400;6.692;2022-12-26T20:05:02;1.27;;;1.03;;
10212;SDS011;5150;51.400;6.692;2022-12-26T20:08:26;2.27;;;1.17;;
10212;SDS011;5150;51.400;6.692;2022-12-26T20:11:49;0.67;;;0.67;;
10212;SDS011;5150;51.400;6.692;2022-12-26T20:15:15;4.13;;;3.77;;
10212;SDS011;5150;51.400;6.692;2022-12-26T20:18:39;4.50;;;2.10;;
10212;SDS011;5150;51.400;6.692;2022-12-26T20:22:02;0.83;;;0.83;;
10212;SDS011;5150;51.400;6.692;2022-12-26T20:25:26;1.03;;;0.97;;
10212;SDS011;5150;51.400;6.692;2022-12-26T20:28:49;14.30;;;6.23;;
10212;SDS011;5150;51.400;6.692;2022-12-26T20:32:17;1.40;;;0.97;;
10212;SDS011;5150;51.400;6.692;2022-12-26T20:35:40;0.33;;;0.33;;
10212;SDS011;5150;51.400;6.692;2022-12-26T20:39:04;13.43;;;11.87;;
10212;SDS011;5150;51.400;6.692;2022-12-26T20:42:28;1.83;;;1.30;;
10212;SDS011;5150;51.400;6.692;2022-12-26T20:45:51;3.20;;;2.93;;
10212;SDS011;5150;51.400;6.692;2022-12-26T20:49:16;3.37;;;2.20;;
10212;SDS011;5150;51.400;6.692;2022-12-26T20:52:40;3.40;;;1.13;;
10212;SDS011;5150;51.400;6.692;2022-12-26T20:56:03;0.73;;;0.73;;
10212;SDS011;5150;51.400;6.692;2022-12-26T20:59:27;0.50;;;0.50;;
10212;SDS011;5150;51.400;6.692;2022-12-26T21:02:50;3.07;;;2.00;;
10212;SDS011;5150;51.400;6.692;2022-12-26T21:06:16;0.50;;;0.50;;
10212;SDS011;5150;51.400;6.692;2022-12-26T21:09:40;4.73;;;4.20;;
10212;SDS011;5150;51.400;6.692;2022-12-26T21:13:07;2.83;;;2.23;;
10212;SDS011;5150;51.400;6.692;2022-12-26T21:16:31;2.37;;;2.17;;
10212;SDS011;5150;51.400;6.692;2022-12-26T21:19:55;1.43;;;1.07;;
10212;SDS011;5150;51.400;6.692;2022-12-26T21:23:20;1.23;;;0.60;;
10212;SDS011;5150;51.400;6.692;2022-12-26T21:26:43;0.67;;;0.67;;